Time;durP1;ratioP1;P1;durP2;ratioP2;P2;SDS_P1;SDS_P2;PMS_P1;PMS_P2;Temp;Humidity;BMP_temperature;BMP_pressure;BME280_temperature;BME280_humidity;BME280_pressure;Samples;Min_cycle;Max_cycle;Signal;HPM_P1;HPM_P2
2023/01/26 00:01:28;;;;;;;;;9.50;7.50;;;;;-0.08;86.91;99160.09;4970427;28;102275;-69
2023/01/26 00:03:56;;;;;;;;;8.75;5.25;;;;;-0.08;86.17;99159.25;4967401;28;108723;-70
2023/01/26 00:06:25;;;;;;;;;7.00;5.25;;;;;-0.08;87.03;99168.06;4967334;28;102971;-70
2023/01/26 00:08:54;;;;;;;;;7.00;5.00;;;;;-0.09;86.45;99163.72;4970417;28;102181;-70
2023/01/26 00:11:25;;;;;;;;;11.33;8.67;;;;;-0.26;86.79;99134.97;4967164;28;102032;-70
2023/01/26 00:13:54;;;;;;;;;11.25;7.25;;;;;-0.14;87.29;99155.28;4963696;28;104029;-71
2023/01/26 00:16:21;;;;;;;;;11.25;9.25;;;;;-0.19;87.90;99154.81;4966129;28;102024;-70
2023/01/26 00:18:48;;;;;;;;;7.75;5.00;;;;;-0.18;88.15;99156.47;4962518;28;102696;-70
2023/01/26 00:21:18;;;;;;;;;8.50;6.50;;;;;-0.17;87.81;99152.84;4957863;28;101951;-69
2023/01/26 00:23:46;;;;;;;;;3.00;2.00;;;;;-0.19;87.85;99149.50;4967232;28;104173;-69
2023/01/26 00:26:16;;;;;;;;;9.00;7.00;;;;;-0.22;87.79;99146.19;4967803;28;102816;-69
2023/01/26 00:28:43;;;;;;;;;14.00;9.67;;;;;-0.25;88.40;99139.31;4969385;28;102314;-69
2023/01/26 00:31:22;;;;;;;;;10.00;9.00;;;;;-0.26;88.15;99134.13;4951632;28;102427;-69
2023/01/26 00:33:50;;;;;;;;;12.75;8.00;;;;;-0.23;88.46;99137.41;4948712;28;103762;-69
2023/01/26 00:36:17;;;;;;;;;6.00;6.00;;;;;-0.21;88.22;99140.78;4957157;28;102197;-68
2023/01/26 00:38:45;;;;;;;;;7.00;6.25;;;;;-0.21;89.34;99135.47;4955056;28;105645;-69
2023/01/26 00:42:05;;;;;;;;;6.75;5.75;;;;;-0.16;88.53;99141.28;4961668;28;102276;-68
2023/01/26 00:44:00;;;;;;;;;4.75;4.00;;;;;-0.19;88.97;99125.56;4965452;28;108531;-69
2023/01/26 00:46:27;;;;;;;;;2.00;2.00;;;;;-0.14;88.32;99126.06;4968101;28;102042;-68
2023/01/26 00:48:54;;;;;;;;;7.50;5.75;;;;;-0.27;88.64;99112.03;4966710;28;103003;-69
2023/01/26 00:51:21;;;;;;;;;16.75;9.75;;;;;-0.24;87.31;99126.91;4961484;28;102305;-69
2023/01/26 00:53:48;;;;;;;;;13.00;11.33;;;;;-0.26;88.52;99127.00;4967654;28;103987;-69
2023/01/26 00:56:15;;;;;;;;;8.25;6.25;;;;;-0.46;88.87;99088.72;4943252;28;102216;-69
2023/01/26 00:58:44;;;;;;;;;5.00;4.75;;;;;-0.20;88.21;99123.88;4947779;28;102982;-68
2023/01/26 01:01:11;;;;;;;;;5.00;4.00;;;;;-0.19;88.71;99117.59;4949106;28;102328;-69
2023/01/26 01:03:38;;;;;;;;;5.25;4.25;;;;;-0.15;87.98;99115.53;4967027;28;104373;-68
2023/01/26 01:06:05;;;;;;;;;5.75;4.25;;;;;-0.18;88.38;99121.09;4966016;28;102872;-69
2023/01/26 01:08:32;;;;;;;;;14.25;8.00;;;;;-0.48;88.14;99079.19;4966486;28;102096;-69
2023/01/26 01:11:10;;;;;;;;;8.50;5.50;;;;;-0.21;87.68;99123.97;4973124;28;102337;-69
2023/01/26 01:13:37;;;;;;;;;9.33;9.00;;;;;-0.19;88.05;99120.25;4956788;28;108709;-69
2023/01/26 01:16:06;;;;;;;;;4.00;2.00;;;;;-0.17;88.13;99115.66;4940982;28;102341;-69
2023/01/26 01:18:34;;;;;;;;;6.00;1.75;;;;;-0.23;87.94;99096.72;4944891;28;103179;-71
2023/01/26 01:21:08;;;;;;;;;2.00;2.00;;;;;-0.11;87.92;99112.53;4947884;28;101955;-71
2023/01/26 01:23:36;;;;;;;;;6.50;4.00;;;;;-0.11;87.14;99103.69;4955549;28;104027;-69
2023/01/26 01:26:04;;;;;;;;;5.75;3.50;;;;;-0.11;87.48;99106.34;4958298;28;102660;-70
2023/01/26 01:28:33;;;;;;;;;6.00;4.50;;;;;-0.12;87.79;99100.19;4963379;28;102202;-70
2023/01/26 01:31:06;;;;;;;;;3.50;3.50;;;;;-0.14;87.35;99102.16;4958867;28;102028;-70
2023/01/26 01:33:33;;;;;;;;;3.50;3.00;;;;;-0.15;86.98;99095.13;4959969;28;108743;-70
2023/01/26 01:36:06;;;;;;;;;7.75;4.75;;;;;-0.20;86.91;99092.00;4959565;28;104552;-70
2023/01/26 01:38:34;;;;;;;;;4.00;4.00;;;;;-0.19;87.05;99092.84;4962133;28;101977;-70
2023/01/26 01:41:01;;;;;;;;;8.00;6.75;;;;;-0.30;86.38;99085.69;4970781;28;110533;-72
2023/01/26 01:43:28;;;;;;;;;10.25;5.75;;;;;-0.30;87.35;99090.16;4956048;28;104017;-70
2023/01/26 01:45:55;;;;;;;;;5.00;5.00;;;;;-0.28;87.29;99089.09;4960891;28;102416;-70
2023/01/26 01:48:39;;;;;;;;;5.00;4.00;;;;;-0.28;87.03;99089.09;4959494;28;102115;-70
2023/01/26 01:51:13;;;;;;;;;5.25;4.00;;;;;-0.45;87.61;99055.03;4965395;28;102453;-70
2023/01/26 01:53:45;;;;;;;;;4.00;2.00;;;;;-0.25;86.61;99083.53;4968686;28;104027;-70
2023/01/26 01:56:20;;;;;;;;;1.75;1.75;;;;;-0.20;86.34;99081.34;4970310;28;102344;-70
2023/01/26 01:58:51;;;;;;;;;5.00;4.00;;;;;-0.22;86.34;99087.75;4970625;28;102418;-70
2023/01/26 02:01:18;;;;;;;;;2.00;1.25;;;;;-0.19;86.55;99085.72;4969937;28;102316;-70
2023/01/26 02:03:49;;;;;;;;;3.50;3.50;;;;;-0.18;87.00;99090.03;4966455;28;103999;-70
2023/01/26 02:07:08;;;;;;;;;4.00;3.50;;;;;-0.20;86.21;99085.81;4966779;28;102489;-69
2023/01/26 02:13:00;;;;;;;;;3.00;3.00;;;;;-0.20;86.04;99083.16;4970265;28;102002;-69
2023/01/26 02:15:48;;;;;;;;;5.50;4.00;;;;;-0.24;86.03;99085.22;4963710;28;107376;-69
2023/01/26 02:18:34;;;;;;;;;6.25;3.00;;;;;-0.52;85.71;99044.06;4971215;28;102332;-68
2023/01/26 02:21:22;;;;;;;;;4.00;4.00;;;;;-0.34;85.55;99081.59;4968886;28;102258;-69
2023/01/26 02:24:29;;;;;;;;;7.75;4.00;;;;;-0.64;86.00;99030.91;4949601;28;102187;-69
2023/01/26 02:27:03;;;;;;;;;4.00;2.00;;;;;-0.35;85.99;99082.56;4962791;28;107747;-69
2023/01/26 02:29:30;;;;;;;;;6.00;1.00;;;;;-0.34;85.80;99083.41;4974685;28;102277;-69
2023/01/26 02:31:57;;;;;;;;;2.50;2.00;;;;;-0.33;86.44;99077.13;4968938;28;103877;-69
2023/01/26 02:34:27;;;;;;;;;2.00;1.00;;;;;-0.31;87.00;99078.69;4965988;28;102297;-69
2023/01/26 02:36:58;;;;;;;;;5.00;4.33;;;;;-0.33;86.09;99078.00;4970877;28;104327;-69
2023/01/26 02:39:48;;;;;;;;;4.00;2.00;;;;;-0.34;86.22;99072.78;4968526;28;102525;-69
2023/01/26 02:45:01;;;;;;;;;3.25;1.75;;;;;-0.33;85.74;99063.84;4948503;28;102115;-69
2023/01/26 02:47:28;;;;;;;;;2.25;1.75;;;;;-0.31;85.96;99053.94;4964642;28;104030;-69
2023/01/26 02:49:57;;;;;;;;;1.00;1.00;;;;;-0.34;86.27;99041.75;4971391;28;102304;-69
2023/01/26 02:52:26;;;;;;;;;1.00;0.00;;;;;-0.26;85.74;99047.28;4969659;28;102190;-70
2023/01/26 02:57:41;;;;;;;;;2.00;1.25;;;;;-0.27;85.65;99042.13;4969050;28;108672;-69
2023/01/26 03:00:11;;;;;;;;;1.00;1.00;;;;;-0.25;85.80;99041.03;4965994;28;102343;-69
2023/01/26 03:02:40;;;;;;;;;1.50;1.25;;;;;-0.24;86.54;99037.41;4965497;28;102111;-69
2023/01/26 03:05:07;;;;;;;;;1.00;0.00;;;;;-0.22;86.01;99026.63;4971657;28;102382;-69
2023/01/26 03:07:34;;;;;;;;;1.00;1.00;;;;;-0.22;86.10;99022.16;4969361;28;104268;-70
2023/01/26 03:10:03;;;;;;;;;1.50;1.00;;;;;-0.32;85.90;98997.31;4972477;28;102183;-70
2023/01/26 03:12:30;;;;;;;;;2.00;1.00;;;;;-0.19;85.83;99021.94;4969929;28;102084;-69
2023/01/26 03:17:43;;;;;;;;;5.75;4.00;;;;;-0.15;85.53;99012.75;4940593;28;108625;-69
2023/01/26 03:28:47;;;;;;;;;2.50;1.00;;;;;-0.22;85.74;99013.34;4898207;28;109301;-69
2023/01/26 03:31:14;;;;;;;;;5.50;5.50;;;;;-0.31;85.89;99008.78;4939715;28;102559;-69
2023/01/26 03:33:41;;;;;;;;;26.67;23.67;;;;;-0.51;87.14;99021.84;4968363;28;102821;-69
2023/01/26 03:36:08;;;;;;;;;33.67;26.33;;;;;-0.59;88.17;99024.28;4963493;28;102164;-69
2023/01/26 03:38:35;;;;;;;;;30.33;27.33;;;;;-0.76;88.85;99014.09;4969948;28;104180;-69
2023/01/26 03:57:37;;;;;;;;;24.33;22.00;;;;;-0.90;90.98;98995.75;4969357;28;102397;-69
2023/01/26 04:00:05;;;;;;;;;28.00;21.67;;;;;-0.93;89.68;98980.94;4967480;28;102895;-70
2023/01/26 04:08:23;;;;;;;;;30.00;27.00;;;;;-1.32;90.40;98928.31;4958468;28;102328;-70
2023/01/26 04:10:50;;;;;;;;;29.33;26.00;;;;;-1.16;89.53;98962.44;4964144;28;108800;-70
2023/01/26 04:21:39;;;;;;;;;25.00;23.00;;;;;-0.87;88.01;98974.31;4968265;28;108420;-70
2023/01/26 04:24:12;;;;;;;;;34.00;27.67;;;;;-0.95;90.38;98980.22;4967085;28;102576;-70
2023/01/26 04:26:42;;;;;;;;;38.00;31.67;;;;;-1.01;89.03;98972.72;4965793;28;102471;-70
2023/01/26 04:29:11;;;;;;;;;32.67;24.33;;;;;-0.88;89.03;98966.44;4965548;28;101854;-70
2023/01/26 04:31:40;;;;;;;;;23.00;22.00;;;;;-0.93;89.70;98965.00;4961491;28;105332;-69
2023/01/26 04:34:12;;;;;;;;;41.67;30.33;;;;;-1.02;89.86;98975.47;4968770;28;102293;-69
2023/01/26 04:36:41;;;;;;;;;45.00;35.00;;;;;-1.08;89.67;98966.19;4963498;28;102071;-69
2023/01/26 04:39:09;;;;;;;;;38.00;29.67;;;;;-1.09;90.41;98972.47;4954068;28;102428;-70
2023/01/26 04:41:35;;;;;;;;;40.00;32.33;;;;;-1.09;91.28;98969.81;4964149;28;104026;-70
2023/01/26 04:44:02;;;;;;;;;33.67;25.00;;;;;-1.07;91.19;98962.56;4961189;28;102541;-70
2023/01/26 04:46:29;;;;;;;;;41.67;35.00;;;;;-1.13;90.50;98963.06;4969903;28;103191;-70
2023/01/26 04:48:56;;;;;;;;;52.33;39.00;;;;;-1.15;90.76;98961.47;4969271;28;102404;-69
2023/01/26 04:51:24;;;;;;;;;37.00;28.67;;;;;-1.13;90.65;98955.13;4965051;28;104162;-70
2023/01/26 04:53:51;;;;;;;;;36.67;29.67;;;;;-1.12;90.96;98940.84;4970420;28;102260;-69
2023/01/26 04:56:29;;;;;;;;;41.33;31.67;;;;;-1.15;89.78;98943.75;4969441;28;102213;-69
2023/01/26 04:59:02;;;;;;;;;38.33;29.33;;;;;-1.12;90.44;98942.66;4965296;28;102507;-69
2023/01/26 05:01:29;;;;;;;;;36.33;19.33;;;;;-1.03;90.86;98940.13;4969686;28;105692;-70
2023/01/26 05:04:02;;;;;;;;;25.00;18.00;;;;;-1.17;90.37;98908.53;4968145;28;102557;-70
2023/01/26 05:06:29;;;;;;;;;5.00;2.00;;;;;-0.94;90.03;98941.22;4973463;28;102467;-69
2023/01/26 05:08:57;;;;;;;;;36.67;27.33;;;;;-0.98;90.59;98945.94;4973284;28;102473;-69
2023/01/26 05:11:24;;;;;;;;;37.33;31.33;;;;;-1.02;90.83;98941.00;4962350;28;104020;-70
2023/01/26 05:13:51;;;;;;;;;24.67;24.67;;;;;-0.97;90.07;98931.72;4969197;28;102115;-70
2023/01/26 05:16:18;;;;;;;;;36.67;29.67;;;;;-0.99;90.12;98920.34;4970871;28;101982;-69
2023/01/26 05:18:45;;;;;;;;;26.33;21.67;;;;;-1.12;91.31;98890.44;4970880;28;102336;-69
2023/01/26 05:21:13;;;;;;;;;23.00;15.67;;;;;-0.87;90.71;98918.56;4970502;28;104020;-69
2023/01/26 05:23:40;;;;;;;;;18.67;15.00;;;;;-1.02;90.55;98880.81;4971428;28;102407;-69
2023/01/26 05:26:07;;;;;;;;;27.00;21.00;;;;;-0.87;89.28;98913.25;4972510;28;102332;-69
2023/01/26 05:28:34;;;;;;;;;22.67;20.33;;;;;-0.82;89.79;98921.69;4976712;28;102055;-69
2023/01/26 05:31:01;;;;;;;;;18.00;12.33;;;;;-0.69;89.68;98924.22;4969166;28;108156;-69
2023/01/26 05:33:28;;;;;;;;;14.33;11.00;;;;;-0.66;89.02;98924.81;4969488;28;102309;-69
2023/01/26 05:35:55;;;;;;;;;23.67;15.00;;;;;-0.91;87.78;98885.28;4970582;28;102349;-69
2023/01/26 05:38:22;;;;;;;;;48.00;33.67;;;;;-0.85;88.21;98919.25;4972628;27;102131;-68
2023/01/26 05:40:49;;;;;;;;;34.33;32.00;;;;;-0.91;90.46;98922.44;4969217;28;110254;-69
2023/01/26 05:43:16;;;;;;;;;25.67;20.33;;;;;-0.96;91.12;98928.09;4971949;28;102594;-69
2023/01/26 05:45:43;;;;;;;;;40.00;37.00;;;;;-1.01;90.60;98929.41;4963093;28;102331;-69
2023/01/26 05:48:10;;;;;;;;;43.67;33.67;;;;;-1.04;92.20;98929.66;4956940;28;102177;-69
2023/01/26 05:50:37;;;;;;;;;36.67;28.33;;;;;-1.02;91.56;98933.88;4955417;28;103978;-69
2023/01/26 05:53:05;;;;;;;;;29.67;26.00;;;;;-1.02;91.52;98920.59;4956170;28;102107;-69
2023/01/26 05:55:32;;;;;;;;;27.67;22.33;;;;;-0.90;91.05;98927.59;4967021;28;102274;-68
2023/01/26 05:57:59;;;;;;;;;24.00;19.00;;;;;-0.81;90.90;98930.50;4968622;28;102310;-69
2023/01/26 06:00:26;;;;;;;;;38.33;28.00;;;;;-0.85;90.48;98935.19;4956650;28;104203;-69
2023/01/26 06:02:53;;;;;;;;;33.00;28.33;;;;;-1.09;89.80;98906.16;4963406;28;102210;-69
2023/01/26 06:05:19;;;;;;;;;38.00;27.00;;;;;-0.92;89.94;98920.72;4958575;28;101981;-69
2023/01/26 06:07:46;;;;;;;;;31.00;28.33;;;;;-0.91;91.41;98925.09;4955984;28;102989;-69
2023/01/26 06:10:13;;;;;;;;;32.67;26.00;;;;;-0.86;90.57;98925.56;4965005;28;104218;-69
2023/01/26 06:12:41;;;;;;;;;24.67;16.33;;;;;-0.83;90.25;98927.97;4963227;28;102874;-69
2023/01/26 06:15:11;;;;;;;;;24.67;22.00;;;;;-0.84;90.39;98930.72;4962880;28;102036;-69
2023/01/26 06:17:38;;;;;;;;;31.00;25.33;;;;;-0.86;89.48;98916.75;4958688;28;102127;-69
2023/01/26 06:20:07;;;;;;;;;39.67;33.00;;;;;-0.95;90.45;98916.53;4947099;28;104061;-71
2023/01/26 06:22:34;;;;;;;;;31.67;26.67;;;;;-0.88;90.06;98918.66;4972869;28;102705;-70
2023/01/26 06:25:01;;;;;;;;;26.00;21.00;;;;;-0.80;90.06;98917.09;4970401;28;102373;-70
2023/01/26 06:27:28;;;;;;;;;28.00;22.33;;;;;-0.76;89.44;98917.69;4970625;28;103003;-70
2023/01/26 06:29:55;;;;;;;;;20.00;17.33;;;;;-0.69;89.33;98924.22;4969211;28;103979;-70
2023/01/26 06:32:22;;;;;;;;;13.67;12.33;;;;;-0.59;89.19;98930.47;4968835;28;102080;-71
2023/01/26 06:34:51;;;;;;;;;15.33;12.33;;;;;-0.53;89.14;98935.28;4967786;28;102058;-68
2023/01/26 06:37:18;;;;;;;;;8.67;8.67;;;;;-0.55;88.84;98916.00;4970284;28;102248;-69
2023/01/26 06:39:45;;;;;;;;;18.67;16.67;;;;;-0.58;88.36;98917.06;4967956;28;104228;-68
2023/01/26 06:42:12;;;;;;;;;16.00;13.67;;;;;-0.55;89.07;98926.59;4969499;28;102561;-69
2023/01/26 06:44:39;;;;;;;;;11.33;11.00;;;;;-0.48;89.34;98920.66;4970444;28;103035;-69
2023/01/26 06:47:06;;;;;;;;;8.25;6.50;;;;;-0.44;88.87;98923.91;4971128;28;102422;-71
2023/01/26 06:49:33;;;;;;;;;13.33;10.33;;;;;-0.43;88.02;98922.94;4970168;28;104008;-69
2023/01/26 06:52:29;;;;;;;;;33.33;25.33;;;;;-0.67;87.55;98907.19;4967907;28;102042;-70
2023/01/26 06:54:59;;;;;;;;;43.00;35.00;;;;;-0.87;91.14;98904.44;4965482;28;102273;-69
2023/01/26 06:57:26;;;;;;;;;32.33;27.00;;;;;-0.94;89.96;98873.06;4970232;28;102579;-69
2023/01/26 06:59:56;;;;;;;;;25.67;22.33;;;;;-0.72;89.77;98904.03;4961562;28;104204;-70
2023/01/26 07:02:23;;;;;;;;;19.67;14.00;;;;;-0.70;89.29;98890.66;4970559;28;102004;-69
2023/01/26 07:04:50;;;;;;;;;22.67;19.00;;;;;-0.81;89.92;98869.47;4964489;28;101975;-70
2023/01/26 07:07:17;;;;;;;;;19.00;15.00;;;;;-0.59;89.05;98898.63;4948104;28;101994;-70
2023/01/26 07:09:44;;;;;;;;;12.67;11.33;;;;;-0.52;88.62;98891.81;4965336;28;103999;-70
2023/01/26 07:12:11;;;;;;;;;14.33;12.00;;;;;-0.48;88.90;98890.59;4953048;28;102083;-71
2023/01/26 07:14:38;;;;;;;;;22.00;16.00;;;;;-0.56;88.76;98891.25;4943093;28;101815;-70
2023/01/26 07:17:05;;;;;;;;;20.33;15.67;;;;;-0.58;89.02;98887.84;4973176;28;102043;-70
2023/01/26 07:19:32;;;;;;;;;16.00;15.00;;;;;-0.48;88.24;98899.41;4965396;28;108497;-70
2023/01/26 07:22:00;;;;;;;;;11.00;11.00;;;;;-0.41;88.54;98893.63;4969690;28;102661;-70
2023/01/26 07:24:28;;;;;;;;;10.33;7.67;;;;;-0.57;87.29;98872.75;4970977;28;102260;-71
2023/01/26 07:26:55;;;;;;;;;12.00;11.00;;;;;-0.34;88.07;98890.31;4956991;28;102253;-70
2023/01/26 07:29:22;;;;;;;;;12.00;8.33;;;;;-0.26;87.35;98898.50;4941749;28;104168;-70
2023/01/26 07:31:49;;;;;;;;;8.33;6.00;;;;;-0.20;87.06;98897.16;4967630;28;102183;-70
2023/01/26 07:34:16;;;;;;;;;8.00;6.00;;;;;-0.13;87.08;98896.53;4970118;28;102128;-71
2023/01/26 07:36:44;;;;;;;;;5.00;4.00;;;;;-0.08;86.97;98904.13;4967812;28;102327;-70
2023/01/26 07:39:11;;;;;;;;;5.75;3.50;;;;;-0.05;86.77;98894.09;4944307;28;104951;-70
2023/01/26 07:41:38;;;;;;;;;5.25;4.75;;;;;-0.01;86.50;98900.84;4953525;28;102382;-70
2023/01/26 07:44:08;;;;;;;;;7.75;5.25;;;;;0.03;85.79;98904.09;4956570;28;102835;-70
2023/01/26 07:46:36;;;;;;;;;5.00;5.00;;;;;0.04;85.75;98902.28;4970365;28;102241;-70
2023/01/26 07:49:03;;;;;;;;;9.00;5.25;;;;;0.07;85.92;98902.00;4969706;28;108867;-70
2023/01/26 07:51:30;;;;;;;;;6.00;5.00;;;;;0.09;85.83;98906.22;4965174;28;102329;-70
2023/01/26 07:53:57;;;;;;;;;5.00;4.00;;;;;0.09;84.98;98906.22;4969285;28;102133;-70
2023/01/26 07:56:24;;;;;;;;;6.50;6.50;;;;;0.11;85.43;98904.28;4965783;28;102351;-70
2023/01/26 07:58:53;;;;;;;;;12.50;8.50;;;;;0.15;85.13;98904.88;4967159;28;104154;-70
2023/01/26 08:01:20;;;;;;;;;7.00;5.00;;;;;0.18;85.64;98905.44;4960626;28;102646;-70
2023/01/26 08:03:52;;;;;;;;;5.50;5.50;;;;;0.14;85.04;98889.88;4968068;28;102033;-70
2023/01/26 08:06:19;;;;;;;;;4.00;4.00;;;;;0.22;84.66;98887.44;4968359;28;102503;-70
2023/01/26 08:08:50;;;;;;;;;10.75;5.75;;;;;0.16;84.14;98896.78;4962235;28;104227;-70
2023/01/26 08:11:18;;;;;;;;;8.50;8.50;;;;;0.22;84.79;98903.41;4970267;27;105953;-70
2023/01/26 08:13:45;;;;;;;;;28.00;24.00;;;;;0.06;85.67;98900.31;4967494;28;102328;-70
2023/01/26 08:16:12;;;;;;;;;18.67;17.33;;;;;0.15;86.30;98897.72;4967148;28;102396;-70
2023/01/26 08:18:44;;;;;;;;;15.67;12.67;;;;;0.24;84.96;98904.94;4968843;28;104070;-71
2023/01/26 08:21:13;;;;;;;;;8.75;6.00;;;;;0.30;84.39;98892.94;4969652;28;102390;-70
2023/01/26 08:23:40;;;;;;;;;8.75;6.00;;;;;0.37;84.56;98883.47;4966848;28;102363;-71
2023/01/26 08:26:10;;;;;;;;;11.50;6.50;;;;;0.43;84.27;98888.28;4949060;28;103355;-72
2023/01/26 08:28:38;;;;;;;;;10.25;8.25;;;;;0.24;84.66;98848.25;4951244;28;104102;-72
2023/01/26 08:31:07;;;;;;;;;24.67;19.00;;;;;0.43;84.73;98883.81;4956093;28;101932;-70
2023/01/26 08:33:34;;;;;;;;;46.33;33.67;;;;;0.08;85.46;98893.06;4959805;28;102044;-70
2023/01/26 08:36:06;;;;;;;;;44.33;40.00;;;;;-0.12;85.30;98881.44;4964016;28;102662;-70
2023/01/26 08:38:34;;;;;;;;;48.00;38.67;;;;;-0.27;86.33;98888.84;4967912;28;109340;-70
2023/01/26 08:41:02;;;;;;;;;42.33;36.00;;;;;-0.29;86.71;98881.97;4959692;28;102240;-70
2023/01/26 08:43:29;;;;;;;;;45.67;36.33;;;;;-0.20;86.69;98886.53;4967431;28;102157;-70
2023/01/26 08:45:56;;;;;;;;;36.67;33.33;;;;;-0.34;86.24;98849.63;4958023;28;102159;-70
2023/01/26 08:48:24;;;;;;;;;37.67;31.00;;;;;-0.16;86.72;98894.13;4952199;28;104302;-70
2023/01/26 08:50:55;;;;;;;;;48.33;37.67;;;;;-0.22;87.69;98889.31;4954458;28;102286;-70
2023/01/26 08:53:23;;;;;;;;;45.00;33.33;;;;;-0.24;87.46;98877.97;4952559;28;102019;-70
2023/01/26 08:55:50;;;;;;;;;36.00;27.33;;;;;-0.12;87.45;98892.06;4969972;28;102392;-70
2023/01/26 08:58:19;;;;;;;;;36.33;27.00;;;;;0.05;86.42;98901.28;4958452;28;103698;-70
2023/01/26 09:00:46;;;;;;;;;26.00;19.67;;;;;0.18;85.85;98896.66;4949163;28;102133;-70
2023/01/26 09:03:14;;;;;;;;;13.33;11.67;;;;;0.13;85.81;98865.13;4958273;28;102292;-70
2023/01/26 09:05:41;;;;;;;;;27.00;20.00;;;;;0.35;84.90;98898.72;4955476;28;102269;-71
2023/01/26 09:08:08;;;;;;;;;15.00;13.67;;;;;0.34;83.95;98883.75;4958412;28;103854;-70
2023/01/26 09:10:37;;;;;;;;;13.00;11.00;;;;;0.40;84.51;98897.38;4961516;28;102420;-70
2023/01/26 09:13:04;;;;;;;;;13.00;12.00;;;;;0.44;84.52;98896.13;4971608;28;102464;-70
2023/01/26 09:15:31;;;;;;;;;19.00;15.50;;;;;0.49;83.52;98892.25;4965078;28;102566;-70
2023/01/26 09:17:58;;;;;;;;;19.25;15.75;;;;;0.53;84.45;98891.84;4958622;28;103957;-70
2023/01/26 09:20:27;;;;;;;;;16.33;14.67;;;;;0.63;83.83;98890.06;4966334;28;101955;-71
2023/01/26 09:22:54;;;;;;;;;17.67;16.00;;;;;0.57;83.72;98882.63;4960949;28;102103;-70
2023/01/26 09:25:21;;;;;;;;;18.50;15.50;;;;;0.58;82.60;98888.78;4962746;28;102257;-70
2023/01/26 09:27:48;;;;;;;;;23.00;17.00;;;;;0.60;82.13;98884.16;4960185;28;103971;-70
2023/01/26 09:30:15;;;;;;;;;20.50;14.00;;;;;0.63;82.67;98882.09;4963085;28;102460;-71
2023/01/26 09:32:42;;;;;;;;;25.67;20.67;;;;;0.56;83.04;98883.59;4963581;28;102278;-70
2023/01/26 09:35:10;;;;;;;;;34.00;31.33;;;;;0.38;83.95;98878.03;4973760;28;102479;-70
2023/01/26 09:37:42;;;;;;;;;42.33;36.67;;;;;0.32;84.43;98870.56;4964572;28;104184;-71
2023/01/26 09:40:20;;;;;;;;;38.67;31.67;;;;;0.39;84.50;98877.06;4965589;28;103324;-71
2023/01/26 09:43:10;;;;;;;;;36.33;31.00;;;;;0.46;83.93;98866.72;4962977;28;102732;-70
2023/01/26 09:45:53;;;;;;;;;27.67;20.00;;;;;0.73;83.88;98861.69;4971838;28;102020;-70
2023/01/26 09:48:33;;;;;;;;;18.75;17.00;;;;;0.83;81.44;98859.06;4968441;28;108737;-70
2023/01/26 09:51:12;;;;;;;;;21.00;17.00;;;;;0.96;81.81;98858.84;4969442;28;102378;-70
2023/01/26 09:53:46;;;;;;;;;14.75;13.75;;;;;0.86;80.61;98822.38;4970668;28;102252;-72
2023/01/26 09:56:24;;;;;;;;;16.00;14.00;;;;;1.12;81.53;98848.53;4970664;28;102042;-70
2023/01/26 09:59:01;;;;;;;;;43.67;30.33;;;;;0.84;80.96;98843.00;4969610;28;104234;-70
2023/01/26 10:01:37;;;;;;;;;36.00;29.33;;;;;0.68;81.95;98844.44;4963924;28;105453;-70
2023/01/26 10:04:35;;;;;;;;;35.67;28.00;;;;;0.86;81.85;98848.16;4968087;28;101917;-70
2023/01/26 10:07:09;;;;;;;;;23.33;21.33;;;;;1.12;81.33;98852.06;4960543;28;102410;-70
2023/01/26 10:09:38;;;;;;;;;15.50;13.50;;;;;1.28;80.10;98846.19;4958885;28;108833;-70
2023/01/26 10:12:32;;;;;;;;;12.50;9.00;;;;;1.34;81.30;98840.34;4976990;28;102067;-70
2023/01/26 10:15:07;;;;;;;;;12.75;10.00;;;;;1.44;79.21;98851.81;4961276;28;101787;-70
2023/01/26 10:17:37;;;;;;;;;13.75;12.25;;;;;1.56;79.53;98837.41;4972956;28;102471;-71
2023/01/26 10:20:13;;;;;;;;;17.00;12.00;;;;;1.61;78.43;98845.00;4972792;28;109490;-71
2023/01/26 10:22:46;;;;;;;;;22.25;18.50;;;;;1.40;79.26;98845.09;4966222;28;102345;-69
2023/01/26 10:25:19;;;;;;;;;17.00;12.75;;;;;1.50;79.68;98840.63;4970106;28;102155;-70
2023/01/26 10:27:46;;;;;;;;;15.50;12.75;;;;;1.58;79.67;98830.09;4969445;28;102683;-71
2023/01/26 10:30:18;;;;;;;;;10.75;8.00;;;;;1.67;78.30;98834.59;4966527;28;104262;-69
2023/01/26 10:32:49;;;;;;;;;7.25;6.00;;;;;1.74;76.81;98824.25;4969222;28;102414;-69
2023/01/26 10:35:19;;;;;;;;;7.00;6.00;;;;;1.83;77.72;98822.56;4968672;28;109719;-69
2023/01/26 10:37:47;;;;;;;;;18.75;13.75;;;;;1.73;77.76;98819.88;4970973;28;102163;-69
2023/01/26 10:40:16;;;;;;;;;19.50;17.50;;;;;1.73;79.17;98814.56;4970135;28;104201;-70
2023/01/26 10:42:53;;;;;;;;;35.67;29.33;;;;;1.58;77.30;98824.78;4965872;28;101969;-70
2023/01/26 10:45:31;;;;;;;;;37.00;31.67;;;;;1.61;77.29;98827.19;4948857;28;102600;-70
2023/01/26 10:48:16;;;;;;;;;26.50;21.00;;;;;1.71;78.07;98806.69;4962037;28;101903;-69
2023/01/26 10:50:45;;;;;;;;;26.75;23.75;;;;;1.95;76.16;98822.25;4963120;28;107979;-70
2023/01/26 10:53:24;;;;;;;;;23.50;17.75;;;;;2.01;75.65;98827.03;4967855;28;102359;-70
2023/01/26 10:56:03;;;;;;;;;16.25;14.00;;;;;2.13;75.78;98819.72;4965626;28;102354;-69
2023/01/26 10:58:54;;;;;;;;;28.00;23.50;;;;;1.77;75.74;98819.47;4962135;28;102243;-69
2023/01/26 11:01:26;;;;;;;;;23.25;15.75;;;;;1.89;76.25;98811.34;4944424;28;109134;-69
2023/01/26 11:04:06;;;;;;;;;22.00;17.00;;;;;2.02;75.68;98801.22;4967270;28;102631;-69
2023/01/26 11:06:34;;;;;;;;;18.00;15.25;;;;;2.13;75.47;98803.72;4958473;28;102410;-70
2023/01/26 11:09:17;;;;;;;;;15.50;13.00;;;;;2.21;75.21;98804.69;4959997;28;102486;-69
2023/01/26 11:12:01;;;;;;;;;12.00;10.25;;;;;2.28;75.29;98815.63;4957946;28;108980;-69
2023/01/26 11:14:30;;;;;;;;;11.25;10.25;;;;;2.28;74.22;98807.63;4968321;28;102180;-69
2023/01/26 11:17:08;;;;;;;;;9.25;6.25;;;;;2.29;74.70;98806.66;4970134;28;102163;-69
2023/01/26 11:19:44;;;;;;;;;8.75;6.25;;;;;2.35;74.48;98797.19;4968992;28;102113;-70
2023/01/26 11:22:18;;;;;;;;;7.50;6.25;;;;;2.33;74.02;98793.84;4968985;28;108185;-69
2023/01/26 11:25:06;;;;;;;;;9.25;6.25;;;;;2.30;74.80;98802.97;4966729;28;102198;-69
2023/01/26 11:27:41;;;;;;;;;7.25;5.50;;;;;2.26;74.39;98777.56;4969396;28;103099;-69
2023/01/26 11:30:31;;;;;;;;;6.00;3.00;;;;;2.24;75.19;98784.91;4968737;28;102001;-69
2023/01/26 11:33:34;;;;;;;;;6.00;5.75;;;;;2.23;73.78;98788.53;4961754;28;108847;-70
2023/01/26 11:36:07;;;;;;;;;9.25;8.00;;;;;2.22;74.64;98786.84;4956339;28;101982;-69
2023/01/26 11:38:39;;;;;;;;;7.50;6.00;;;;;1.98;73.88;98767.81;4950135;28;102282;-69
2023/01/26 11:41:35;;;;;;;;;18.25;13.00;;;;;1.90;74.52;98771.19;4955330;28;102377;-69
2023/01/26 11:44:14;;;;;;;;;19.50;14.50;;;;;1.90;75.54;98773.00;4955910;28;108492;-70
2023/01/26 11:47:13;;;;;;;;;17.75;15.25;;;;;1.82;75.50;98767.56;4960913;28;102023;-70
2023/01/26 11:49:43;;;;;;;;;12.50;10.50;;;;;1.92;76.50;98757.72;4959279;28;102069;-70
2023/01/26 11:52:16;;;;;;;;;26.00;22.50;;;;;1.64;77.75;98743.44;4954704;28;102092;-70
2023/01/26 11:54:49;;;;;;;;;26.50;19.75;;;;;1.59;74.01;98746.53;4946347;28;108672;-71
2023/01/26 11:57:26;;;;;;;;;28.25;22.25;;;;;1.52;75.88;98750.75;4951617;28;102342;-70
2023/01/26 11:59:59;;;;;;;;;24.50;20.50;;;;;1.40;76.56;98711.09;4963004;28;101959;-70
2023/01/26 12:02:30;;;;;;;;;37.00;34.50;;;;;1.43;76.62;98743.59;4963199;28;103623;-71
2023/01/26 12:05:02;;;;;;;;;33.67;30.33;;;;;1.44;76.95;98737.25;4959187;28;104306;-70
2023/01/26 12:07:50;;;;;;;;;44.00;29.67;;;;;1.40;76.91;98732.38;4967101;28;102173;-70
2023/01/26 12:10:23;;;;;;;;;29.33;23.67;;;;;1.44;77.79;98734.59;4967497;28;104256;-70
2023/01/26 12:13:19;;;;;;;;;45.33;39.33;;;;;1.22;78.36;98729.56;4970565;28;102366;-70
2023/01/26 12:16:00;;;;;;;;;36.00;28.33;;;;;1.28;77.21;98739.66;4944668;28;108742;-71
2023/01/26 12:18:47;;;;;;;;;35.00;31.00;;;;;1.29;78.89;98734.19;4962659;28;101943;-70
2023/01/26 12:21:36;;;;;;;;;50.67;39.67;;;;;1.18;78.35;98723.66;4967690;28;102247;-71
2023/01/26 12:24:04;;;;;;;;;48.00;37.33;;;;;1.22;80.74;98716.22;4960851;28;102513;-71
2023/01/26 12:26:41;;;;;;;;;34.67;28.67;;;;;1.26;78.73;98696.38;4942373;28;103802;-71
2023/01/26 12:29:20;;;;;;;;;24.00;23.33;;;;;1.50;78.67;98715.41;4948505;28;102598;-71